sensor_id;sensor_type;location;lat;lon;timestamp;temperature;humidity
5061;DHT22;2549;52.128;21.068;2023-04-16T00:02:03;12.70;99.90
5061;DHT22;2549;52.128;21.068;2023-04-16T00:04:31;12.70;99.90
5061;DHT22;2549;52.128;21.068;2023-04-16T00:06:58;12.70;99.90
5061;DHT22;2549;52.128;21.068;2023-04-16T00:09:24;12.70;99.90
5061;DHT22;2549;52.128;21.068;2023-04-16T00:11:51;12.70;99.90
5061;DHT22;2549;52.128;21.068;2023-04-16T00:14:18;12.70;99.90
5061;DHT22;2549;52.128;21.068;2023-04-16T00:16:45;12.70;99.90
5061;DHT22;2549;52.128;21.068;2023-04-16T00:19:12;12.70;99.90
5061;DHT22;2549;52.128;21.068;2023-04-16T00:21:39;12.70;99.90
5061;DHT22;2549;52.128;21.068;2023-04-16T00:24:06;12.70;99.90
5061;DHT22;2549;52.128;21.068;2023-04-16T00:26:33;12.60;99.90
5061;DHT22;2549;52.128;21.068;2023-04-16T00:29:00;12.60;99.90
5061;DHT22;2549;52.128;21.068;2023-04-16T00:31:31;12.70;99.90
5061;DHT22;2549;52.128;21.068;2023-04-16T00:33:58;12.60;99.90
5061;DHT22;2549;52.128;21.068;2023-04-16T00:36:26;12.60;99.90
5061;DHT22;2549;52.128;21.068;2023-04-16T00:38:54;12.50;99.90
5061;DHT22;2549;52.128;21.068;2023-04-16T00:41:22;12.50;99.90
5061;DHT22;2549;52.128;21.068;2023-04-16T00:43:49;12.50;99.90
5061;DHT22;2549;52.128;21.068;2023-04-16T00:46:18;12.50;99.90
5061;DHT22;2549;52.128;21.068;2023-04-16T00:48:45;12.50;99.90
5061;DHT22;2549;52.128;21.068;2023-04-16T00:51:13;12.50;99.90
5061;DHT22;2549;52.128;21.068;2023-04-16T00:53:40;12.50;99.90
5061;DHT22;2549;52.128;21.068;2023-04-16T00:56:08;12.50;99.90
5061;DHT22;2549;52.128;21.068;2023-04-16T00:58:35;12.50;99.90
5061;DHT22;2549;52.128;21.068;2023-04-16T01:01:02;12.40;99.90
5061;DHT22;2549;52.128;21.068;2023-04-16T01:03:37;12.50;99.90
5061;DHT22;2549;52.128;21.068;2023-04-16T01:06:06;12.50;99.90
5061;DHT22;2549;52.128;21.068;2023-04-16T01:08:33;12.40;99.90
5061;DHT22;2549;52.128;21.068;2023-04-16T01:11:00;12.50;99.90
5061;DHT22;2549;52.128;21.068;2023-04-16T01:13:29;12.50;99.90
5061;DHT22;2549;52.128;21.068;2023-04-16T01:15:56;12.50;99.90
5061;DHT22;2549;52.128;21.068;2023-04-16T01:18:25;12.50;99.90
5061;DHT22;2549;52.128;21.068;2023-04-16T01:20:52;12.50;99.90
5061;DHT22;2549;52.128;21.068;2023-04-16T01:23:19;12.60;99.90
5061;DHT22;2549;52.128;21.068;2023-04-16T01:25:46;12.50;99.90
5061;DHT22;2549;52.128;21.068;2023-04-16T01:28:13;12.50;99.90
5061;DHT22;2549;52.128;21.068;2023-04-16T01:30:40;12.50;99.90
5061;DHT22;2549;52.128;21.068;2023-04-16T01:33:09;12.50;99.90
5061;DHT22;2549;52.128;21.068;2023-04-16T01:35:37;12.40;99.90
5061;DHT22;2549;52.128;21.068;2023-04-16T01:38:04;12.50;99.90
5061;DHT22;2549;52.128;21.068;2023-04-16T01:40:35;12.50;99.90
5061;DHT22;2549;52.128;21.068;2023-04-16T01:43:03;12.40;99.90
5061;DHT22;2549;52.128;21.068;2023-04-16T01:45:31;12.40;99.90
5061;DHT22;2549;52.128;21.068;2023-04-16T01:47:58;12.40;99.90
5061;DHT22;2549;52.128;21.068;2023-04-16T01:50:24;12.40;99.90
5061;DHT22;2549;52.128;21.068;2023-04-16T01:52:52;12.30;99.90
5061;DHT22;2549;52.128;21.068;2023-04-16T01:55:18;12.40;99.90
5061;DHT22;2549;52.128;21.068;2023-04-16T01:57:45;12.40;99.90
5061;DHT22;2549;52.128;21.068;2023-04-16T02:00:12;12.40;99.90
5061;DHT22;2549;52.128;21.068;2023-04-16T02:02:39;12.30;99.90
5061;DHT22;2549;52.128;21.068;2023-04-16T02:05:07;12.30;99.90
5061;DHT22;2549;52.128;21.068;2023-04-16T02:07:33;12.30;99.90
5061;DHT22;2549;52.128;21.068;2023-04-16T02:10:00;12.40;99.90
5061;DHT22;2549;52.128;21.068;2023-04-16T02:12:27;12.40;99.90
5061;DHT22;2549;52.128;21.068;2023-04-16T02:14:55;12.30;99.90
5061;DHT22;2549;52.128;21.068;2023-04-16T02:17:21;12.30;99.90
5061;DHT22;2549;52.128;21.068;2023-04-16T02:19:48;12.40;99.90
5061;DHT22;2549;52.128;21.068;2023-04-16T02:22:15;12.50;99.90
5061;DHT22;2549;52.128;21.068;2023-04-16T02:24:42;12.50;99.90
5061;DHT22;2549;52.128;21.068;2023-04-16T02:27:09;12.50;99.90
5061;DHT22;2549;52.128;21.068;2023-04-16T02:29:36;12.60;99.90
5061;DHT22;2549;52.128;21.068;2023-04-16T02:32:04;12.60;99.90
5061;DHT22;2549;52.128;21.068;2023-04-16T02:34:31;12.60;99.90
5061;DHT22;2549;52.128;21.068;2023-04-16T02:37:00;12.70;99.90
5061;DHT22;2549;52.128;21.068;2023-04-16T02:39:27;12.70;99.90
5061;DHT22;2549;52.128;21.068;2023-04-16T02:41:54;12.60;99.90
5061;DHT22;2549;52.128;21.068;2023-04-16T02:44:21;12.50;99.90
5061;DHT22;2549;52.128;21.068;2023-04-16T02:46:48;12.50;99.90
5061;DHT22;2549;52.128;21.068;2023-04-16T02:49:15;12.50;99.90
5061;DHT22;2549;52.128;21.068;2023-04-16T02:51:42;12.50;99.90
5061;DHT22;2549;52.128;21.068;2023-04-16T02:54:09;12.50;99.90
5061;DHT22;2549;52.128;21.068;2023-04-16T02:56:35;12.50;99.90
5061;DHT22;2549;52.128;21.068;2023-04-16T02:59:02;12.50;99.90
5061;DHT22;2549;52.128;21.068;2023-04-16T03:01:32;12.40;99.90
5061;DHT22;2549;52.128;21.068;2023-04-16T03:03:59;12.40;99.90
5061;DHT22;2549;52.128;21.068;2023-04-16T03:06:26;12.30;99.90
5061;DHT22;2549;52.128;21.068;2023-04-16T03:08:53;12.40;99.90
5061;DHT22;2549;52.128;21.068;2023-04-16T03:11:20;12.30;99.90
5061;DHT22;2549;52.128;21.068;2023-04-16T03:13:47;12.30;99.90
5061;DHT22;2549;52.128;21.068;2023-04-16T03:16:14;12.30;99.90
5061;DHT22;2549;52.128;21.068;2023-04-16T03:18:41;12.30;99.90
5061;DHT22;2549;52.128;21.068;2023-04-16T03:21:08;12.40;99.90
5061;DHT22;2549;52.128;21.068;2023-04-16T03:23:35;12.40;99.90
5061;DHT22;2549;52.128;21.068;2023-04-16T03:26:02;12.40;99.90
5061;DHT22;2549;52.128;21.068;2023-04-16T03:28:29;12.40;99.90
5061;DHT22;2549;52.128;21.068;2023-04-16T03:30:55;12.50;99.90
5061;DHT22;2549;52.128;21.068;2023-04-16T03:33:22;12.40;99.90
5061;DHT22;2549;52.128;21.068;2023-04-16T03:35:56;12.40;99.90
5061;DHT22;2549;52.128;21.068;2023-04-16T03:38:24;12.30;99.90
5061;DHT22;2549;52.128;21.068;2023-04-16T03:40:54;12.30;99.90
5061;DHT22;2549;52.128;21.068;2023-04-16T03:43:21;12.30;99.90
5061;DHT22;2549;52.128;21.068;2023-04-16T03:45:48;12.20;99.90
5061;DHT22;2549;52.128;21.068;2023-04-16T03:48:14;12.30;99.90
5061;DHT22;2549;52.128;21.068;2023-04-16T03:50:45;12.30;99.90
5061;DHT22;2549;52.128;21.068;2023-04-16T03:53:13;12.30;99.90
5061;DHT22;2549;52.128;21.068;2023-04-16T03:55:41;12.30;99.90
5061;DHT22;2549;52.128;21.068;2023-04-16T03:58:08;12.20;99.90
5061;DHT22;2549;52.128;21.068;2023-04-16T04:00:35;12.20;99.90
5061;DHT22;2549;52.128;21.068;2023-04-16T04:03:02;12.20;99.90
5061;DHT22;2549;52.128;21.068;2023-04-16T04:05:29;12.20;99.90
5061;DHT22;2549;52.128;21.068;2023-04-16T04:07:56;12.20;99.90
5061;DHT22;2549;52.128;21.068;2023-04-16T04:10:23;12.10;99.90
5061;DHT22;2549;52.128;21.068;2023-04-16T04:12:50;12.10;99.90
5061;DHT22;2549;52.128;21.068;2023-04-16T04:15:17;12.20;99.90
5061;DHT22;2549;52.128;21.068;2023-04-16T04:17:43;12.20;99.90
5061;DHT22;2549;52.128;21.068;2023-04-16T04:20:12;12.30;99.90
5061;DHT22;2549;52.128;21.068;2023-04-16T04:22:39;12.40;99.90
5061;DHT22;2549;52.128;21.068;2023-04-16T04:25:08;12.40;99.90
5061;DHT22;2549;52.128;21.068;2023-04-16T04:27:35;12.50;99.90
5061;DHT22;2549;52.128;21.068;2023-04-16T04:30:02;12.50;99.90
5061;DHT22;2549;52.128;21.068;2023-04-16T04:32:33;12.50;99.90
5061;DHT22;2549;52.128;21.068;2023-04-16T04:35:01;12.60;99.90
5061;DHT22;2549;52.128;21.068;2023-04-16T04:37:28;12.60;99.90
5061;DHT22;2549;52.128;21.068;2023-04-16T04:39:55;12.60;99.90
5061;DHT22;2549;52.128;21.068;2023-04-16T04:42:22;12.60;99.90
5061;DHT22;2549;52.128;21.068;2023-04-16T04:44:49;12.70;99.90
5061;DHT22;2549;52.128;21.068;2023-04-16T04:47:16;12.70;99.90
5061;DHT22;2549;52.128;21.068;2023-04-16T04:49:43;12.70;99.90
5061;DHT22;2549;52.128;21.068;2023-04-16T04:52:10;12.70;99.90
5061;DHT22;2549;52.128;21.068;2023-04-16T04:54:37;12.70;99.90
5061;DHT22;2549;52.128;21.068;2023-04-16T04:57:07;12.70;99.90
5061;DHT22;2549;52.128;21.068;2023-04-16T04:59:34;12.70;99.90
5061;DHT22;2549;52.128;21.068;2023-04-16T05:02:01;12.70;99.90
5061;DHT22;2549;52.128;21.068;2023-04-16T05:04:29;12.70;99.90
5061;DHT22;2549;52.128;21.068;2023-04-16T05:06:56;12.70;99.90
5061;DHT22;2549;52.128;21.068;2023-04-16T05:09:23;12.80;99.90
5061;DHT22;2549;52.128;21.068;2023-04-16T05:11:50;12.80;99.90
5061;DHT22;2549;52.128;21.068;2023-04-16T05:14:16;12.80;99.90
5061;DHT22;2549;52.128;21.068;2023-04-16T05:16:43;12.70;99.90
5061;DHT22;2549;52.128;21.068;2023-04-16T05:19:10;12.70;99.90
5061;DHT22;2549;52.128;21.068;2023-04-16T05:21:37;12.60;99.90
5061;DHT22;2549;52.128;21.068;2023-04-16T05:24:05;12.70;99.90
5061;DHT22;2549;52.128;21.068;2023-04-16T05:26:32;12.80;99.90
5061;DHT22;2549;52.128;21.068;2023-04-16T05:28:58;12.70;99.90
5061;DHT22;2549;52.128;21.068;2023-04-16T05:31:25;12.70;99.90
5061;DHT22;2549;52.128;21.068;2023-04-16T05:33:52;12.70;99.90
5061;DHT22;2549;52.128;21.068;2023-04-16T05:36:19;12.70;99.90
5061;DHT22;2549;52.128;21.068;2023-04-16T05:38:46;12.80;99.90
5061;DHT22;2549;52.128;21.068;2023-04-16T05:41:13;12.80;99.90
5061;DHT22;2549;52.128;21.068;2023-04-16T05:43:39;12.90;99.90
5061;DHT22;2549;52.128;21.068;2023-04-16T05:46:06;12.90;99.90
5061;DHT22;2549;52.128;21.068;2023-04-16T05:48:33;12.90;99.90
5061;DHT22;2549;52.128;21.068;2023-04-16T05:51:00;12.80;99.90
5061;DHT22;2549;52.128;21.068;2023-04-16T05:53:28;12.70;99.90
5061;DHT22;2549;52.128;21.068;2023-04-16T05:55:55;12.80;99.90
5061;DHT22;2549;52.128;21.068;2023-04-16T05:58:24;12.90;99.90
5061;DHT22;2549;52.128;21.068;2023-04-16T06:00:54;12.90;99.90
5061;DHT22;2549;52.128;21.068;2023-04-16T06:03:21;12.90;99.90
5061;DHT22;2549;52.128;21.068;2023-04-16T06:05:48;12.90;99.90
5061;DHT22;2549;52.128;21.068;2023-04-16T06:08:15;13.00;99.90
5061;DHT22;2549;52.128;21.068;2023-04-16T06:10:42;12.90;99.90
5061;DHT22;2549;52.128;21.068;2023-04-16T06:13:09;12.90;99.90
5061;DHT22;2549;52.128;21.068;2023-04-16T06:15:35;13.00;99.90
5061;DHT22;2549;52.128;21.068;2023-04-16T06:18:02;13.00;99.90
5061;DHT22;2549;52.128;21.068;2023-04-16T06:20:30;13.00;99.90
5061;DHT22;2549;52.128;21.068;2023-04-16T06:22:57;13.10;99.90
5061;DHT22;2549;52.128;21.068;2023-04-16T06:25:24;13.10;99.90
5061;DHT22;2549;52.128;21.068;2023-04-16T06:27:50;13.00;99.90
5061;DHT22;2549;52.128;21.068;2023-04-16T06:30:18;12.90;99.90
5061;DHT22;2549;52.128;21.068;2023-04-16T06:32:45;12.90;99.90
5061;DHT22;2549;52.128;21.068;2023-04-16T06:35:12;12.90;99.90
5061;DHT22;2549;52.128;21.068;2023-04-16T06:37:39;12.80;99.90
5061;DHT22;2549;52.128;21.068;2023-04-16T06:40:07;12.70;99.90
5061;DHT22;2549;52.128;21.068;2023-04-16T06:42:34;12.70;99.90
5061;DHT22;2549;52.128;21.068;2023-04-16T06:45:00;12.70;99.90
5061;DHT22;2549;52.128;21.068;2023-04-16T06:47:27;12.70;99.90
5061;DHT22;2549;52.128;21.068;2023-04-16T06:49:54;12.80;99.90
5061;DHT22;2549;52.128;21.068;2023-04-16T06:52:21;12.80;99.90
5061;DHT22;2549;52.128;21.068;2023-04-16T06:54:48;12.90;99.90
5061;DHT22;2549;52.128;21.068;2023-04-16T06:57:14;13.00;99.90
5061;DHT22;2549;52.128;21.068;2023-04-16T06:59:41;13.00;99.90
5061;DHT22;2549;52.128;21.068;2023-04-16T07:02:09;13.10;99.90
5061;DHT22;2549;52.128;21.068;2023-04-16T07:04:36;13.20;99.90
5061;DHT22;2549;52.128;21.068;2023-04-16T07:07:03;13.20;99.90
5061;DHT22;2549;52.128;21.068;2023-04-16T07:09:30;13.10;99.90
5061;DHT22;2549;52.128;21.068;2023-04-16T07:11:57;13.10;99.90
5061;DHT22;2549;52.128;21.068;2023-04-16T07:14:24;13.20;99.90
5061;DHT22;2549;52.128;21.068;2023-04-16T07:16:51;13.20;99.90
5061;DHT22;2549;52.128;21.068;2023-04-16T07:19:18;13.20;99.90
5061;DHT22;2549;52.128;21.068;2023-04-16T07:21:45;13.30;99.90
5061;DHT22;2549;52.128;21.068;2023-04-16T07:24:12;13.30;99.90
5061;DHT22;2549;52.128;21.068;2023-04-16T07:26:39;13.30;99.90
5061;DHT22;2549;52.128;21.068;2023-04-16T07:29:06;13.30;99.90
5061;DHT22;2549;52.128;21.068;2023-04-16T07:31:33;13.40;99.90
5061;DHT22;2549;52.128;21.068;2023-04-16T07:34:00;13.40;99.90
5061;DHT22;2549;52.128;21.068;2023-04-16T07:36:29;13.30;99.90
5061;DHT22;2549;52.128;21.068;2023-04-16T07:38:57;13.20;99.90
5061;DHT22;2549;52.128;21.068;2023-04-16T07:41:24;13.10;99.90
5061;DHT22;2549;52.128;21.068;2023-04-16T07:43:51;13.10;99.90
5061;DHT22;2549;52.128;21.068;2023-04-16T07:46:18;13.10;99.90
5061;DHT22;2549;52.128;21.068;2023-04-16T07:48:45;13.20;99.90
5061;DHT22;2549;52.128;21.068;2023-04-16T07:51:12;13.20;99.90
5061;DHT22;2549;52.128;21.068;2023-04-16T07:53:39;13.30;99.90
5061;DHT22;2549;52.128;21.068;2023-04-16T07:56:06;13.40;99.90
5061;DHT22;2549;52.128;21.068;2023-04-16T07:58:33;13.40;99.90
5061;DHT22;2549;52.128;21.068;2023-04-16T08:01:00;13.30;99.90
5061;DHT22;2549;52.128;21.068;2023-04-16T08:03:27;13.40;99.90
5061;DHT22;2549;52.128;21.068;2023-04-16T08:05:55;13.50;99.90
5061;DHT22;2549;52.128;21.068;2023-04-16T08:08:21;13.40;99.90
5061;DHT22;2549;52.128;21.068;2023-04-16T08:10:48;13.50;99.90
5061;DHT22;2549;52.128;21.068;2023-04-16T08:13:15;13.60;99.90
5061;DHT22;2549;52.128;21.068;2023-04-16T08:15:42;13.50;99.90
5061;DHT22;2549;52.128;21.068;2023-04-16T08:18:09;13.60;99.90
5061;DHT22;2549;52.128;21.068;2023-04-16T08:20:41;13.70;99.90
5061;DHT22;2549;52.128;21.068;2023-04-16T08:23:08;13.70;99.90
5061;DHT22;2549;52.128;21.068;2023-04-16T08:25:35;13.80;99.90
5061;DHT22;2549;52.128;21.068;2023-04-16T08:28:02;13.80;99.90
5061;DHT22;2549;52.128;21.068;2023-04-16T08:30:28;13.70;99.90
5061;DHT22;2549;52.128;21.068;2023-04-16T08:32:57;13.80;99.90
5061;DHT22;2549;52.128;21.068;2023-04-16T08:35:24;13.90;99.90
5061;DHT22;2549;52.128;21.068;2023-04-16T08:37:51;14.00;99.90
5061;DHT22;2549;52.128;21.068;2023-04-16T08:40:19;14.00;99.90
5061;DHT22;2549;52.128;21.068;2023-04-16T08:42:53;14.00;99.90
5061;DHT22;2549;52.128;21.068;2023-04-16T08:45:21;14.10;99.90
5061;DHT22;2549;52.128;21.068;2023-04-16T08:47:50;14.10;99.90
5061;DHT22;2549;52.128;21.068;2023-04-16T08:50:22;14.00;99.90
5061;DHT22;2549;52.128;21.068;2023-04-16T08:52:51;14.10;99.90
5061;DHT22;2549;52.128;21.068;2023-04-16T08:55:22;14.10;99.90
5061;DHT22;2549;52.128;21.068;2023-04-16T08:57:53;14.20;99.90
5061;DHT22;2549;52.128;21.068;2023-04-16T09:00:20;14.20;99.90
5061;DHT22;2549;52.128;21.068;2023-04-16T09:02:47;14.20;99.90
5061;DHT22;2549;52.128;21.068;2023-04-16T09:05:16;14.30;99.90
5061;DHT22;2549;52.128;21.068;2023-04-16T09:07:45;14.30;99.90
5061;DHT22;2549;52.128;21.068;2023-04-16T09:10:14;14.30;99.90
5061;DHT22;2549;52.128;21.068;2023-04-16T09:12:42;14.30;99.90
5061;DHT22;2549;52.128;21.068;2023-04-16T09:15:10;14.30;99.90
5061;DHT22;2549;52.128;21.068;2023-04-16T09:17:38;14.40;99.90
5061;DHT22;2549;52.128;21.068;2023-04-16T09:20:07;14.40;99.90
5061;DHT22;2549;52.128;21.068;2023-04-16T09:22:37;14.40;99.90
5061;DHT22;2549;52.128;21.068;2023-04-16T09:25:06;14.50;99.90
5061;DHT22;2549;52.128;21.068;2023-04-16T09:27:33;14.50;99.90
5061;DHT22;2549;52.128;21.068;2023-04-16T09:30:00;14.60;99.90
5061;DHT22;2549;52.128;21.068;2023-04-16T09:32:27;14.60;99.90
5061;DHT22;2549;52.128;21.068;2023-04-16T09:35:01;14.70;99.90
5061;DHT22;2549;52.128;21.068;2023-04-16T09:37:29;14.70;99.90
5061;DHT22;2549;52.128;21.068;2023-04-16T09:39:58;14.70;99.90
5061;DHT22;2549;52.128;21.068;2023-04-16T09:42:29;14.80;99.90
5061;DHT22;2549;52.128;21.068;2023-04-16T09:44:58;14.80;99.80
5061;DHT22;2549;52.128;21.068;2023-04-16T09:47:42;14.80;99.90
5061;DHT22;2549;52.128;21.068;2023-04-16T09:50:16;14.80;99.90
5061;DHT22;2549;52.128;21.068;2023-04-16T09:52:47;14.80;99.90
5061;DHT22;2549;52.128;21.068;2023-04-16T09:55:15;14.80;99.80
5061;DHT22;2549;52.128;21.068;2023-04-16T09:57:42;14.80;99.70
5061;DHT22;2549;52.128;21.068;2023-04-16T10:00:09;14.80;99.80
5061;DHT22;2549;52.128;21.068;2023-04-16T10:02:39;14.80;99.60
5061;DHT22;2549;52.128;21.068;2023-04-16T10:05:08;14.90;99.50
5061;DHT22;2549;52.128;21.068;2023-04-16T10:07:36;14.90;99.50
5061;DHT22;2549;52.128;21.068;2023-04-16T10:10:03;14.90;99.40
5061;DHT22;2549;52.128;21.068;2023-04-16T10:12:30;14.90;99.00
5061;DHT22;2549;52.128;21.068;2023-04-16T10:14:58;14.90;99.20
5061;DHT22;2549;52.128;21.068;2023-04-16T10:17:25;14.90;99.30
5061;DHT22;2549;52.128;21.068;2023-04-16T10:19:56;14.90;99.10
5061;DHT22;2549;52.128;21.068;2023-04-16T10:22:24;14.90;99.20
5061;DHT22;2549;52.128;21.068;2023-04-16T10:24:52;14.90;99.20
5061;DHT22;2549;52.128;21.068;2023-04-16T10:27:20;14.90;98.90
5061;DHT22;2549;52.128;21.068;2023-04-16T10:29:48;15.00;99.00
5061;DHT22;2549;52.128;21.068;2023-04-16T10:32:16;15.10;99.20
5061;DHT22;2549;52.128;21.068;2023-04-16T10:34:44;15.20;99.20
5061;DHT22;2549;52.128;21.068;2023-04-16T10:37:11;15.20;99.30
5061;DHT22;2549;52.128;21.068;2023-04-16T10:39:38;15.20;98.80
5061;DHT22;2549;52.128;21.068;2023-04-16T10:42:10;15.20;98.80
5061;DHT22;2549;52.128;21.068;2023-04-16T10:44:40;15.10;98.70
5061;DHT22;2549;52.128;21.068;2023-04-16T10:47:11;15.10;98.80
5061;DHT22;2549;52.128;21.068;2023-04-16T10:49:39;15.00;98.80
5061;DHT22;2549;52.128;21.068;2023-04-16T10:54:36;15.10;98.60
5061;DHT22;2549;52.128;21.068;2023-04-16T10:57:24;15.10;98.50
5061;DHT22;2549;52.128;21.068;2023-04-16T10:59:53;15.20;98.60
5061;DHT22;2549;52.128;21.068;2023-04-16T11:02:20;15.20;98.30
5061;DHT22;2549;52.128;21.068;2023-04-16T11:04:55;15.30;98.10
5061;DHT22;2549;52.128;21.068;2023-04-16T11:07:33;15.30;97.90
5061;DHT22;2549;52.128;21.068;2023-04-16T11:12:34;15.40;97.70
5061;DHT22;2549;52.128;21.068;2023-04-16T11:15:07;15.40;97.80
5061;DHT22;2549;52.128;21.068;2023-04-16T11:20:06;15.40;97.80
5061;DHT22;2549;52.128;21.068;2023-04-16T11:22:47;15.50;97.70
5061;DHT22;2549;52.128;21.068;2023-04-16T11:25:28;15.50;97.80
5061;DHT22;2549;52.128;21.068;2023-04-16T11:27:56;15.60;98.00
5061;DHT22;2549;52.128;21.068;2023-04-16T11:30:34;15.60;97.80
5061;DHT22;2549;52.128;21.068;2023-04-16T11:33:06;15.70;97.60
5061;DHT22;2549;52.128;21.068;2023-04-16T11:35:34;15.70;97.50
5061;DHT22;2549;52.128;21.068;2023-04-16T11:38:01;15.80;97.50
5061;DHT22;2549;52.128;21.068;2023-04-16T11:40:31;15.90;97.40
5061;DHT22;2549;52.128;21.068;2023-04-16T11:43:16;15.80;97.20
5061;DHT22;2549;52.128;21.068;2023-04-16T11:48:23;15.70;97.60
5061;DHT22;2549;52.128;21.068;2023-04-16T11:50:59;15.70;97.80
5061;DHT22;2549;52.128;21.068;2023-04-16T11:53:25;15.70;97.30
5061;DHT22;2549;52.128;21.068;2023-04-16T11:55:52;15.60;97.50
5061;DHT22;2549;52.128;21.068;2023-04-16T11:58:19;15.70;97.80
5061;DHT22;2549;52.128;21.068;2023-04-16T12:00:48;15.70;97.70
5061;DHT22;2549;52.128;21.068;2023-04-16T12:03:36;15.80;97.30
5061;DHT22;2549;52.128;21.068;2023-04-16T12:06:07;15.80;97.50
5061;DHT22;2549;52.128;21.068;2023-04-16T12:08:35;15.80;97.50
5061;DHT22;2549;52.128;21.068;2023-04-16T12:11:02;15.80;97.60
5061;DHT22;2549;52.128;21.068;2023-04-16T12:13:29;15.80;97.60
5061;DHT22;2549;52.128;21.068;2023-04-16T12:15:56;15.80;97.00
5061;DHT22;2549;52.128;21.068;2023-04-16T12:18:24;15.80;97.20
5061;DHT22;2549;52.128;21.068;2023-04-16T12:20:54;15.80;96.90
5061;DHT22;2549;52.128;21.068;2023-04-16T12:23:25;15.80;97.00
5061;DHT22;2549;52.128;21.068;2023-04-16T12:25:53;15.90;97.20
5061;DHT22;2549;52.128;21.068;2023-04-16T12:28:31;15.90;97.10
5061;DHT22;2549;52.128;21.068;2023-04-16T12:30:58;16.00;97.00
5061;DHT22;2549;52.128;21.068;2023-04-16T12:33:25;16.00;96.80
5061;DHT22;2549;52.128;21.068;2023-04-16T12:35:52;16.10;96.80
5061;DHT22;2549;52.128;21.068;2023-04-16T12:38:20;16.10;96.70
5061;DHT22;2549;52.128;21.068;2023-04-16T12:40:50;16.20;96.70
5061;DHT22;2549;52.128;21.068;2023-04-16T12:43:17;16.20;96.80
5061;DHT22;2549;52.128;21.068;2023-04-16T12:45:45;16.20;96.70
5061;DHT22;2549;52.128;21.068;2023-04-16T12:48:12;16.20;96.30
5061;DHT22;2549;52.128;21.068;2023-04-16T12:50:39;16.10;96.30
5061;DHT22;2549;52.128;21.068;2023-04-16T12:53:05;16.10;96.40
5061;DHT22;2549;52.128;21.068;2023-04-16T12:55:32;16.20;96.40
5061;DHT22;2549;52.128;21.068;2023-04-16T12:57:59;16.20;96.30
5061;DHT22;2549;52.128;21.068;2023-04-16T13:00:26;16.20;96.00
5061;DHT22;2549;52.128;21.068;2023-04-16T13:02:53;16.30;96.10
5061;DHT22;2549;52.128;21.068;2023-04-16T13:05:20;16.30;96.20
5061;DHT22;2549;52.128;21.068;2023-04-16T13:07:47;16.30;96.20
5061;DHT22;2549;52.128;21.068;2023-04-16T13:10:14;16.30;95.50
5061;DHT22;2549;52.128;21.068;2023-04-16T13:12:42;16.40;95.30
5061;DHT22;2549;52.128;21.068;2023-04-16T13:15:09;16.40;95.20
5061;DHT22;2549;52.128;21.068;2023-04-16T13:17:36;16.40;95.60
5061;DHT22;2549;52.128;21.068;2023-04-16T13:20:03;16.50;95.80
5061;DHT22;2549;52.128;21.068;2023-04-16T13:22:30;16.50;95.80
5061;DHT22;2549;52.128;21.068;2023-04-16T13:24:57;16.60;95.80
5061;DHT22;2549;52.128;21.068;2023-04-16T13:27:24;16.50;95.00
5061;DHT22;2549;52.128;21.068;2023-04-16T13:29:50;16.50;95.10
5061;DHT22;2549;52.128;21.068;2023-04-16T13:32:18;16.60;95.30
5061;DHT22;2549;52.128;21.068;2023-04-16T13:34:45;16.60;94.90
5061;DHT22;2549;52.128;21.068;2023-04-16T13:37:12;16.60;94.90
5061;DHT22;2549;52.128;21.068;2023-04-16T13:39:39;16.70;94.90
5061;DHT22;2549;52.128;21.068;2023-04-16T13:42:06;16.80;95.00
5061;DHT22;2549;52.128;21.068;2023-04-16T13:44:33;16.80;94.90
5061;DHT22;2549;52.128;21.068;2023-04-16T13:47:00;16.80;94.70
5061;DHT22;2549;52.128;21.068;2023-04-16T13:49:26;16.70;94.00
5061;DHT22;2549;52.128;21.068;2023-04-16T13:51:53;16.70;94.00
5061;DHT22;2549;52.128;21.068;2023-04-16T13:54:20;16.80;94.10
5061;DHT22;2549;52.128;21.068;2023-04-16T13:56:49;16.80;94.20
5061;DHT22;2549;52.128;21.068;2023-04-16T13:59:16;16.80;94.20
5061;DHT22;2549;52.128;21.068;2023-04-16T14:01:43;16.80;93.90
5061;DHT22;2549;52.128;21.068;2023-04-16T14:04:10;16.80;93.90
5061;DHT22;2549;52.128;21.068;2023-04-16T14:06:37;16.80;93.90
5061;DHT22;2549;52.128;21.068;2023-04-16T14:09:03;16.80;94.10
5061;DHT22;2549;52.128;21.068;2023-04-16T14:11:30;16.80;93.70
5061;DHT22;2549;52.128;21.068;2023-04-16T14:13:57;16.80;93.70
5061;DHT22;2549;52.128;21.068;2023-04-16T14:16:25;16.90;93.70
5061;DHT22;2549;52.128;21.068;2023-04-16T14:18:52;16.90;93.80
5061;DHT22;2549;52.128;21.068;2023-04-16T14:21:19;16.90;93.60
5061;DHT22;2549;52.128;21.068;2023-04-16T14:23:45;16.90;93.40
5061;DHT22;2549;52.128;21.068;2023-04-16T14:26:12;16.80;93.60
5061;DHT22;2549;52.128;21.068;2023-04-16T14:28:40;16.80;93.40
5061;DHT22;2549;52.128;21.068;2023-04-16T14:31:07;16.70;93.60
5061;DHT22;2549;52.128;21.068;2023-04-16T14:33:34;16.80;93.80
5061;DHT22;2549;52.128;21.068;2023-04-16T14:36:01;16.80;93.50
5061;DHT22;2549;52.128;21.068;2023-04-16T14:38:29;16.80;93.50
5061;DHT22;2549;52.128;21.068;2023-04-16T14:40:56;16.90;93.70
5061;DHT22;2549;52.128;21.068;2023-04-16T14:43:23;16.90;93.70
5061;DHT22;2549;52.128;21.068;2023-04-16T14:45:51;17.00;93.50
5061;DHT22;2549;52.128;21.068;2023-04-16T14:48:18;17.10;93.60
5061;DHT22;2549;52.128;21.068;2023-04-16T14:50:45;17.10;93.30
5061;DHT22;2549;52.128;21.068;2023-04-16T14:53:12;17.10;93.40
5061;DHT22;2549;52.128;21.068;2023-04-16T14:55:39;17.10;93.10
5061;DHT22;2549;52.128;21.068;2023-04-16T14:58:06;17.10;93.20
5061;DHT22;2549;52.128;21.068;2023-04-16T15:00:35;17.20;93.20
5061;DHT22;2549;52.128;21.068;2023-04-16T15:03:03;17.30;93.20
5061;DHT22;2549;52.128;21.068;2023-04-16T15:05:30;17.30;92.80
5061;DHT22;2549;52.128;21.068;2023-04-16T15:07:57;17.20;92.80
5061;DHT22;2549;52.128;21.068;2023-04-16T15:10:24;17.30;92.60
5061;DHT22;2549;52.128;21.068;2023-04-16T15:12:51;17.30;92.40
5061;DHT22;2549;52.128;21.068;2023-04-16T15:15:18;17.30;92.60
5061;DHT22;2549;52.128;21.068;2023-04-16T15:17:45;17.30;92.70
5061;DHT22;2549;52.128;21.068;2023-04-16T15:20:12;17.30;93.20
5061;DHT22;2549;52.128;21.068;2023-04-16T15:22:39;17.30;93.60
5061;DHT22;2549;52.128;21.068;2023-04-16T15:25:09;17.30;93.90
5061;DHT22;2549;52.128;21.068;2023-04-16T15:27:35;17.20;94.20
5061;DHT22;2549;52.128;21.068;2023-04-16T15:30:03;17.20;94.00
5061;DHT22;2549;52.128;21.068;2023-04-16T15:32:30;17.20;94.10
5061;DHT22;2549;52.128;21.068;2023-04-16T15:34:57;17.20;94.20
5061;DHT22;2549;52.128;21.068;2023-04-16T15:37:25;17.10;94.10
5061;DHT22;2549;52.128;21.068;2023-04-16T15:39:52;17.10;94.30
5061;DHT22;2549;52.128;21.068;2023-04-16T15:42:19;17.10;94.40
5061;DHT22;2549;52.128;21.068;2023-04-16T15:44:46;17.10;94.70
5061;DHT22;2549;52.128;21.068;2023-04-16T15:47:13;17.10;94.90
5061;DHT22;2549;52.128;21.068;2023-04-16T15:49:41;17.10;95.00
5061;DHT22;2549;52.128;21.068;2023-04-16T15:52:09;17.10;95.20
5061;DHT22;2549;52.128;21.068;2023-04-16T15:54:37;17.00;95.60
5061;DHT22;2549;52.128;21.068;2023-04-16T15:57:04;16.90;95.20
5061;DHT22;2549;52.128;21.068;2023-04-16T15:59:31;17.00;95.20